sensor_id;sensor_type;location;lat;lon;timestamp;P1;durP1;ratioP1;P2;durP2;ratioP2
54947;SDS011;41113;41.882;12.530;2023-07-28T00:01:54;13.38;;;4.15;;
54947;SDS011;41113;41.882;12.530;2023-07-28T00:04:19;12.93;;;4.20;;
54947;SDS011;41113;41.882;12.530;2023-07-28T00:06:44;11.80;;;4.28;;
54947;SDS011;41113;41.882;12.530;2023-07-28T00:09:10;14.75;;;4.13;;
54947;SDS011;41113;41.882;12.530;2023-07-28T00:11:35;11.40;;;3.90;;
54947;SDS011;41113;41.882;12.530;2023-07-28T00:14:00;16.98;;;4.43;;
54947;SDS011;41113;41.882;12.530;2023-07-28T00:16:26;14.52;;;4.90;;
54947;SDS011;41113;41.882;12.530;2023-07-28T00:18:51;14.93;;;4.35;;
54947;SDS011;41113;41.882;12.530;2023-07-28T00:21:17;14.25;;;4.30;;
54947;SDS011;41113;41.882;12.530;2023-07-28T00:23:42;17.50;;;4.00;;
54947;SDS011;41113;41.882;12.530;2023-07-28T00:26:07;12.70;;;4.18;;
54947;SDS011;41113;41.882;12.530;2023-07-28T00:28:33;14.43;;;4.30;;
54947;SDS011;41113;41.882;12.530;2023-07-28T00:30:58;13.40;;;3.88;;
54947;SDS011;41113;41.882;12.530;2023-07-28T00:33:23;18.95;;;4.25;;
54947;SDS011;41113;41.882;12.530;2023-07-28T00:35:49;16.25;;;3.95;;
54947;SDS011;41113;41.882;12.530;2023-07-28T00:38:15;11.93;;;3.97;;
54947;SDS011;41113;41.882;12.530;2023-07-28T00:40:40;13.60;;;4.20;;
54947;SDS011;41113;41.882;12.530;2023-07-28T00:43:05;22.80;;;4.30;;
54947;SDS011;41113;41.882;12.530;2023-07-28T00:45:31;14.15;;;4.18;;
54947;SDS011;41113;41.882;12.530;2023-07-28T00:47:58;13.13;;;4.15;;
54947;SDS011;41113;41.882;12.530;2023-07-28T00:50:23;15.48;;;4.00;;
54947;SDS011;41113;41.882;12.530;2023-07-28T00:52:50;10.23;;;3.40;;
54947;SDS011;41113;41.882;12.530;2023-07-28T00:55:15;13.68;;;4.03;;
54947;SDS011;41113;41.882;12.530;2023-07-28T00:57:41;15.32;;;4.25;;
54947;SDS011;41113;41.882;12.530;2023-07-28T01:00:07;12.65;;;4.00;;
54947;SDS011;41113;41.882;12.530;2023-07-28T01:02:33;14.38;;;4.00;;
54947;SDS011;41113;41.882;12.530;2023-07-28T01:04:59;15.32;;;4.03;;
54947;SDS011;41113;41.882;12.530;2023-07-28T01:07:41;14.25;;;4.53;;
54947;SDS011;41113;41.882;12.530;2023-07-28T01:10:23;12.00;;;3.75;;
54947;SDS011;41113;41.882;12.530;2023-07-28T01:12:51;12.27;;;3.53;;
54947;SDS011;41113;41.882;12.530;2023-07-28T01:15:16;13.75;;;3.88;;
54947;SDS011;41113;41.882;12.530;2023-07-28T01:17:42;11.95;;;4.00;;
54947;SDS011;41113;41.882;12.530;2023-07-28T01:20:07;11.15;;;3.45;;
54947;SDS011;41113;41.882;12.530;2023-07-28T01:27:58;10.98;;;3.08;;
54947;SDS011;41113;41.882;12.530;2023-07-28T01:30:25;12.25;;;3.75;;
54947;SDS011;41113;41.882;12.530;2023-07-28T01:32:53;14.40;;;4.05;;
54947;SDS011;41113;41.882;12.530;2023-07-28T01:35:20;11.47;;;3.37;;
54947;SDS011;41113;41.882;12.530;2023-07-28T01:37:45;13.65;;;3.50;;
54947;SDS011;41113;41.882;12.530;2023-07-28T01:40:15;10.88;;;3.83;;
54947;SDS011;41113;41.882;12.530;2023-07-28T01:45:09;14.30;;;5.22;;
54947;SDS011;41113;41.882;12.530;2023-07-28T01:47:35;17.50;;;6.55;;
54947;SDS011;41113;41.882;12.530;2023-07-28T01:50:00;16.10;;;6.53;;
54947;SDS011;41113;41.882;12.530;2023-07-28T01:52:26;15.82;;;5.00;;
54947;SDS011;41113;41.882;12.530;2023-07-28T01:54:51;14.77;;;4.97;;
54947;SDS011;41113;41.882;12.530;2023-07-28T01:57:17;15.70;;;4.15;;
54947;SDS011;41113;41.882;12.530;2023-07-28T01:59:42;13.15;;;4.60;;
54947;SDS011;41113;41.882;12.530;2023-07-28T02:02:08;15.90;;;3.80;;
54947;SDS011;41113;41.882;12.530;2023-07-28T02:04:33;13.00;;;4.05;;
54947;SDS011;41113;41.882;12.530;2023-07-28T02:06:58;14.02;;;4.45;;
54947;SDS011;41113;41.882;12.530;2023-07-28T02:09:24;13.43;;;4.38;;
54947;SDS011;41113;41.882;12.530;2023-07-28T02:11:49;13.68;;;4.57;;
54947;SDS011;41113;41.882;12.530;2023-07-28T02:14:14;11.52;;;3.72;;
54947;SDS011;41113;41.882;12.530;2023-07-28T02:16:40;13.77;;;5.22;;
54947;SDS011;41113;41.882;12.530;2023-07-28T02:19:05;14.50;;;5.80;;
54947;SDS011;41113;41.882;12.530;2023-07-28T02:21:31;13.43;;;4.10;;
54947;SDS011;41113;41.882;12.530;2023-07-28T02:23:56;17.40;;;5.53;;
54947;SDS011;41113;41.882;12.530;2023-07-28T02:26:22;16.23;;;4.80;;
54947;SDS011;41113;41.882;12.530;2023-07-28T02:28:47;13.20;;;3.90;;
54947;SDS011;41113;41.882;12.530;2023-07-28T02:31:12;13.70;;;4.00;;
54947;SDS011;41113;41.882;12.530;2023-07-28T02:33:38;12.20;;;3.70;;
54947;SDS011;41113;41.882;12.530;2023-07-28T02:36:04;12.65;;;3.95;;
54947;SDS011;41113;41.882;12.530;2023-07-28T02:38:29;13.73;;;3.60;;
54947;SDS011;41113;41.882;12.530;2023-07-28T02:40:55;14.80;;;4.10;;
54947;SDS011;41113;41.882;12.530;2023-07-28T02:43:20;10.98;;;3.40;;
54947;SDS011;41113;41.882;12.530;2023-07-28T02:46:04;9.65;;;3.67;;
54947;SDS011;41113;41.882;12.530;2023-07-28T02:48:29;9.82;;;3.17;;
54947;SDS011;41113;41.882;12.530;2023-07-28T02:50:55;14.80;;;3.53;;
54947;SDS011;41113;41.882;12.530;2023-07-28T02:53:20;10.75;;;3.33;;
54947;SDS011;41113;41.882;12.530;2023-07-28T02:55:47;13.43;;;3.95;;
54947;SDS011;41113;41.882;12.530;2023-07-28T02:58:13;12.27;;;3.42;;
54947;SDS011;41113;41.882;12.530;2023-07-28T03:00:39;13.45;;;3.75;;
54947;SDS011;41113;41.882;12.530;2023-07-28T03:03:06;12.80;;;3.13;;
54947;SDS011;41113;41.882;12.530;2023-07-28T03:05:32;11.65;;;3.60;;
54947;SDS011;41113;41.882;12.530;2023-07-28T03:07:58;12.35;;;3.50;;
54947;SDS011;41113;41.882;12.530;2023-07-28T03:10:23;13.07;;;3.80;;
54947;SDS011;41113;41.882;12.530;2023-07-28T03:12:49;9.98;;;3.28;;
54947;SDS011;41113;41.882;12.530;2023-07-28T03:15:15;14.95;;;3.95;;
54947;SDS011;41113;41.882;12.530;2023-07-28T03:17:40;14.10;;;3.65;;
54947;SDS011;41113;41.882;12.530;2023-07-28T03:20:06;10.45;;;3.47;;
54947;SDS011;41113;41.882;12.530;2023-07-28T03:22:31;11.35;;;3.85;;
54947;SDS011;41113;41.882;12.530;2023-07-28T03:24:57;11.50;;;3.95;;
54947;SDS011;41113;41.882;12.530;2023-07-28T03:27:22;10.45;;;3.33;;
54947;SDS011;41113;41.882;12.530;2023-07-28T03:29:48;13.70;;;4.28;;
54947;SDS011;41113;41.882;12.530;2023-07-28T03:32:13;12.57;;;3.80;;
54947;SDS011;41113;41.882;12.530;2023-07-28T03:34:38;11.73;;;3.72;;
54947;SDS011;41113;41.882;12.530;2023-07-28T03:37:04;14.27;;;3.70;;
54947;SDS011;41113;41.882;12.530;2023-07-28T03:39:29;13.45;;;3.70;;
54947;SDS011;41113;41.882;12.530;2023-07-28T03:41:59;10.00;;;3.55;;
54947;SDS011;41113;41.882;12.530;2023-07-28T03:44:24;12.93;;;3.50;;
54947;SDS011;41113;41.882;12.530;2023-07-28T03:46:49;13.20;;;3.80;;
54947;SDS011;41113;41.882;12.530;2023-07-28T03:49:15;10.70;;;3.42;;
54947;SDS011;41113;41.882;12.530;2023-07-28T03:51:40;9.68;;;3.15;;
54947;SDS011;41113;41.882;12.530;2023-07-28T03:54:05;11.77;;;3.30;;
54947;SDS011;41113;41.882;12.530;2023-07-28T03:56:31;9.60;;;3.40;;
54947;SDS011;41113;41.882;12.530;2023-07-28T03:58:56;11.38;;;3.30;;
54947;SDS011;41113;41.882;12.530;2023-07-28T04:01:22;12.20;;;3.30;;
54947;SDS011;41113;41.882;12.530;2023-07-28T04:03:48;12.13;;;3.67;;
54947;SDS011;41113;41.882;12.530;2023-07-28T04:06:13;11.57;;;3.42;;
54947;SDS011;41113;41.882;12.530;2023-07-28T04:08:39;11.25;;;3.50;;
54947;SDS011;41113;41.882;12.530;2023-07-28T04:11:05;12.13;;;3.80;;
54947;SDS011;41113;41.882;12.530;2023-07-28T04:13:30;14.30;;;3.80;;
54947;SDS011;41113;41.882;12.530;2023-07-28T04:15:55;22.00;;;4.55;;
54947;SDS011;41113;41.882;12.530;2023-07-28T04:18:21;31.65;;;6.35;;
54947;SDS011;41113;41.882;12.530;2023-07-28T04:20:46;17.58;;;4.13;;
54947;SDS011;41113;41.882;12.530;2023-07-28T04:23:12;18.63;;;4.35;;
54947;SDS011;41113;41.882;12.530;2023-07-28T04:25:37;14.40;;;3.78;;
54947;SDS011;41113;41.882;12.530;2023-07-28T04:28:02;11.02;;;3.20;;
54947;SDS011;41113;41.882;12.530;2023-07-28T04:30:28;13.07;;;3.35;;
54947;SDS011;41113;41.882;12.530;2023-07-28T04:32:53;12.30;;;3.70;;
54947;SDS011;41113;41.882;12.530;2023-07-28T04:35:19;32.03;;;6.38;;
54947;SDS011;41113;41.882;12.530;2023-07-28T04:37:44;19.48;;;4.90;;
54947;SDS011;41113;41.882;12.530;2023-07-28T04:40:09;15.82;;;3.95;;
54947;SDS011;41113;41.882;12.530;2023-07-28T04:42:35;18.75;;;4.20;;
54947;SDS011;41113;41.882;12.530;2023-07-28T04:45:01;20.30;;;4.10;;
54947;SDS011;41113;41.882;12.530;2023-07-28T04:47:27;11.73;;;3.33;;
54947;SDS011;41113;41.882;12.530;2023-07-28T04:49:52;18.50;;;4.43;;
54947;SDS011;41113;41.882;12.530;2023-07-28T04:52:18;13.50;;;4.38;;
54947;SDS011;41113;41.882;12.530;2023-07-28T04:54:43;11.57;;;3.25;;
54947;SDS011;41113;41.882;12.530;2023-07-28T04:57:08;29.10;;;4.80;;
54947;SDS011;41113;41.882;12.530;2023-07-28T04:59:34;48.20;;;5.38;;
54947;SDS011;41113;41.882;12.530;2023-07-28T05:01:59;14.63;;;3.70;;
54947;SDS011;41113;41.882;12.530;2023-07-28T05:04:24;22.15;;;3.75;;
54947;SDS011;41113;41.882;12.530;2023-07-28T05:06:50;9.48;;;2.80;;
54947;SDS011;41113;41.882;12.530;2023-07-28T05:09:15;15.57;;;3.50;;
54947;SDS011;41113;41.882;12.530;2023-07-28T05:11:40;11.32;;;3.45;;
54947;SDS011;41113;41.882;12.530;2023-07-28T05:14:06;11.32;;;2.80;;
54947;SDS011;41113;41.882;12.530;2023-07-28T05:16:33;14.63;;;3.65;;
54947;SDS011;41113;41.882;12.530;2023-07-28T05:18:59;13.75;;;3.13;;
54947;SDS011;41113;41.882;12.530;2023-07-28T05:21:24;10.98;;;3.03;;
54947;SDS011;41113;41.882;12.530;2023-07-28T05:23:50;13.35;;;3.15;;
54947;SDS011;41113;41.882;12.530;2023-07-28T05:26:15;15.93;;;3.40;;
54947;SDS011;41113;41.882;12.530;2023-07-28T05:28:41;12.35;;;3.35;;
54947;SDS011;41113;41.882;12.530;2023-07-28T05:31:06;15.02;;;3.72;;
54947;SDS011;41113;41.882;12.530;2023-07-28T05:33:31;12.63;;;3.00;;
54947;SDS011;41113;41.882;12.530;2023-07-28T05:36:01;11.38;;;3.40;;
54947;SDS011;41113;41.882;12.530;2023-07-28T05:38:30;12.93;;;3.08;;
54947;SDS011;41113;41.882;12.530;2023-07-28T05:40:56;11.13;;;3.10;;
54947;SDS011;41113;41.882;12.530;2023-07-28T05:43:22;12.10;;;2.92;;
54947;SDS011;41113;41.882;12.530;2023-07-28T05:45:47;13.68;;;3.80;;
54947;SDS011;41113;41.882;12.530;2023-07-28T05:48:13;11.30;;;3.03;;
54947;SDS011;41113;41.882;12.530;2023-07-28T05:50:38;13.93;;;3.35;;
54947;SDS011;41113;41.882;12.530;2023-07-28T05:53:04;16.98;;;3.67;;
54947;SDS011;41113;41.882;12.530;2023-07-28T05:55:29;8.55;;;2.90;;
54947;SDS011;41113;41.882;12.530;2023-07-28T05:57:54;11.25;;;3.00;;
54947;SDS011;41113;41.882;12.530;2023-07-28T06:00:20;15.73;;;3.10;;
54947;SDS011;41113;41.882;12.530;2023-07-28T06:02:45;13.63;;;3.17;;
54947;SDS011;41113;41.882;12.530;2023-07-28T06:05:10;11.25;;;3.50;;
54947;SDS011;41113;41.882;12.530;2023-07-28T06:07:36;12.25;;;3.67;;
54947;SDS011;41113;41.882;12.530;2023-07-28T06:10:02;10.80;;;3.42;;
54947;SDS011;41113;41.882;12.530;2023-07-28T06:12:27;13.38;;;3.25;;
54947;SDS011;41113;41.882;12.530;2023-07-28T06:14:53;10.50;;;3.20;;
54947;SDS011;41113;41.882;12.530;2023-07-28T06:17:18;14.60;;;3.17;;
54947;SDS011;41113;41.882;12.530;2023-07-28T06:19:43;11.93;;;3.22;;
54947;SDS011;41113;41.882;12.530;2023-07-28T06:22:09;11.20;;;3.10;;
54947;SDS011;41113;41.882;12.530;2023-07-28T06:24:34;11.73;;;3.65;;
54947;SDS011;41113;41.882;12.530;2023-07-28T06:26:59;12.75;;;3.40;;
54947;SDS011;41113;41.882;12.530;2023-07-28T06:29:25;12.40;;;3.20;;
54947;SDS011;41113;41.882;12.530;2023-07-28T06:31:50;12.48;;;3.60;;
54947;SDS011;41113;41.882;12.530;2023-07-28T06:34:15;10.73;;;3.42;;
54947;SDS011;41113;41.882;12.530;2023-07-28T06:36:41;16.85;;;3.53;;
54947;SDS011;41113;41.882;12.530;2023-07-28T06:39:06;13.32;;;3.20;;
54947;SDS011;41113;41.882;12.530;2023-07-28T06:41:31;12.15;;;3.22;;
54947;SDS011;41113;41.882;12.530;2023-07-28T06:43:57;12.25;;;3.70;;
54947;SDS011;41113;41.882;12.530;2023-07-28T06:46:22;12.45;;;3.60;;
54947;SDS011;41113;41.882;12.530;2023-07-28T06:48:49;13.63;;;3.78;;
54947;SDS011;41113;41.882;12.530;2023-07-28T06:51:14;13.25;;;3.78;;
54947;SDS011;41113;41.882;12.530;2023-07-28T06:53:39;13.90;;;3.90;;
54947;SDS011;41113;41.882;12.530;2023-07-28T06:56:05;15.85;;;3.65;;
54947;SDS011;41113;41.882;12.530;2023-07-28T06:58:30;16.20;;;3.95;;
54947;SDS011;41113;41.882;12.530;2023-07-28T07:00:55;16.17;;;4.10;;
54947;SDS011;41113;41.882;12.530;2023-07-28T07:03:21;11.63;;;3.42;;
54947;SDS011;41113;41.882;12.530;2023-07-28T07:05:48;14.50;;;3.40;;
54947;SDS011;41113;41.882;12.530;2023-07-28T07:08:14;13.90;;;3.63;;
54947;SDS011;41113;41.882;12.530;2023-07-28T07:10:39;9.10;;;2.72;;
54947;SDS011;41113;41.882;12.530;2023-07-28T07:13:04;11.10;;;2.58;;
54947;SDS011;41113;41.882;12.530;2023-07-28T07:15:30;13.20;;;3.20;;
54947;SDS011;41113;41.882;12.530;2023-07-28T07:17:55;11.38;;;3.20;;
54947;SDS011;41113;41.882;12.530;2023-07-28T07:20:21;10.57;;;3.25;;
54947;SDS011;41113;41.882;12.530;2023-07-28T07:22:47;10.52;;;2.97;;
54947;SDS011;41113;41.882;12.530;2023-07-28T07:25:12;11.15;;;3.28;;
54947;SDS011;41113;41.882;12.530;2023-07-28T07:27:38;11.02;;;2.65;;
54947;SDS011;41113;41.882;12.530;2023-07-28T07:30:03;7.95;;;2.80;;
54947;SDS011;41113;41.882;12.530;2023-07-28T07:32:29;8.98;;;2.30;;
54947;SDS011;41113;41.882;12.530;2023-07-28T07:34:54;9.95;;;2.33;;
54947;SDS011;41113;41.882;12.530;2023-07-28T07:37:19;10.15;;;2.88;;
54947;SDS011;41113;41.882;12.530;2023-07-28T07:39:45;10.02;;;2.80;;
54947;SDS011;41113;41.882;12.530;2023-07-28T07:42:10;8.95;;;2.35;;
54947;SDS011;41113;41.882;12.530;2023-07-28T07:44:36;12.80;;;2.97;;
54947;SDS011;41113;41.882;12.530;2023-07-28T07:47:02;11.35;;;3.00;;
54947;SDS011;41113;41.882;12.530;2023-07-28T07:49:36;8.27;;;2.88;;
54947;SDS011;41113;41.882;12.530;2023-07-28T07:52:02;7.85;;;2.28;;
54947;SDS011;41113;41.882;12.530;2023-07-28T07:54:27;10.95;;;2.53;;
54947;SDS011;41113;41.882;12.530;2023-07-28T07:56:52;9.95;;;2.83;;
54947;SDS011;41113;41.882;12.530;2023-07-28T07:59:18;11.38;;;2.83;;
54947;SDS011;41113;41.882;12.530;2023-07-28T08:01:43;10.73;;;2.85;;
54947;SDS011;41113;41.882;12.530;2023-07-28T08:04:09;12.32;;;2.90;;
54947;SDS011;41113;41.882;12.530;2023-07-28T08:06:36;10.10;;;2.80;;
54947;SDS011;41113;41.882;12.530;2023-07-28T08:09:01;9.60;;;2.65;;
54947;SDS011;41113;41.882;12.530;2023-07-28T08:11:27;9.45;;;2.40;;
54947;SDS011;41113;41.882;12.530;2023-07-28T08:13:53;11.68;;;3.05;;
54947;SDS011;41113;41.882;12.530;2023-07-28T08:16:18;13.48;;;5.95;;
54947;SDS011;41113;41.882;12.530;2023-07-28T08:18:43;10.18;;;3.60;;
54947;SDS011;41113;41.882;12.530;2023-07-28T08:21:09;9.60;;;3.35;;
54947;SDS011;41113;41.882;12.530;2023-07-28T08:23:35;7.90;;;2.67;;
54947;SDS011;41113;41.882;12.530;2023-07-28T08:26:00;10.57;;;2.70;;
54947;SDS011;41113;41.882;12.530;2023-07-28T08:28:25;8.18;;;2.47;;
54947;SDS011;41113;41.882;12.530;2023-07-28T08:30:56;9.52;;;2.78;;
54947;SDS011;41113;41.882;12.530;2023-07-28T08:33:22;10.65;;;2.60;;
54947;SDS011;41113;41.882;12.530;2023-07-28T08:35:48;8.60;;;2.60;;
54947;SDS011;41113;41.882;12.530;2023-07-28T08:38:13;13.13;;;2.85;;
54947;SDS011;41113;41.882;12.530;2023-07-28T08:40:39;9.32;;;2.60;;
54947;SDS011;41113;41.882;12.530;2023-07-28T08:43:05;9.57;;;2.78;;
54947;SDS011;41113;41.882;12.530;2023-07-28T08:45:30;12.20;;;3.38;;
54947;SDS011;41113;41.882;12.530;2023-07-28T08:47:56;11.73;;;3.38;;
54947;SDS011;41113;41.882;12.530;2023-07-28T08:50:21;12.52;;;3.22;;
54947;SDS011;41113;41.882;12.530;2023-07-28T08:52:47;11.07;;;3.10;;
54947;SDS011;41113;41.882;12.530;2023-07-28T08:55:15;29.75;;;4.63;;
54947;SDS011;41113;41.882;12.530;2023-07-28T08:57:41;9.68;;;2.65;;
54947;SDS011;41113;41.882;12.530;2023-07-28T09:00:10;9.20;;;2.83;;
54947;SDS011;41113;41.882;12.530;2023-07-28T09:02:38;8.93;;;2.70;;
54947;SDS011;41113;41.882;12.530;2023-07-28T09:05:05;8.38;;;2.72;;
54947;SDS011;41113;41.882;12.530;2023-07-28T09:07:34;8.88;;;2.42;;
54947;SDS011;41113;41.882;12.530;2023-07-28T09:10:01;9.43;;;2.45;;
54947;SDS011;41113;41.882;12.530;2023-07-28T09:12:27;11.52;;;2.72;;
54947;SDS011;41113;41.882;12.530;2023-07-28T09:14:56;10.60;;;2.97;;
54947;SDS011;41113;41.882;12.530;2023-07-28T09:17:22;8.82;;;2.72;;
54947;SDS011;41113;41.882;12.530;2023-07-28T09:19:54;10.35;;;2.60;;
54947;SDS011;41113;41.882;12.530;2023-07-28T09:22:20;11.75;;;3.00;;
54947;SDS011;41113;41.882;12.530;2023-07-28T09:24:47;10.88;;;2.80;;
54947;SDS011;41113;41.882;12.530;2023-07-28T09:27:24;8.80;;;2.58;;
54947;SDS011;41113;41.882;12.530;2023-07-28T09:29:51;8.80;;;2.63;;
54947;SDS011;41113;41.882;12.530;2023-07-28T09:32:26;9.20;;;2.95;;
54947;SDS011;41113;41.882;12.530;2023-07-28T09:35:08;7.50;;;2.47;;
54947;SDS011;41113;41.882;12.530;2023-07-28T09:37:43;9.65;;;2.95;;
54947;SDS011;41113;41.882;12.530;2023-07-28T09:40:10;10.52;;;2.75;;
54947;SDS011;41113;41.882;12.530;2023-07-28T09:42:40;9.57;;;2.72;;
54947;SDS011;41113;41.882;12.530;2023-07-28T09:45:07;12.23;;;3.38;;
54947;SDS011;41113;41.882;12.530;2023-07-28T09:47:35;12.75;;;3.10;;
54947;SDS011;41113;41.882;12.530;2023-07-28T09:50:02;10.32;;;3.00;;
54947;SDS011;41113;41.882;12.530;2023-07-28T09:52:33;9.93;;;2.92;;
54947;SDS011;41113;41.882;12.530;2023-07-28T09:55:06;11.20;;;2.60;;
54947;SDS011;41113;41.882;12.530;2023-07-28T09:57:38;11.68;;;3.40;;
54947;SDS011;41113;41.882;12.530;2023-07-28T10:00:09;11.43;;;2.83;;
54947;SDS011;41113;41.882;12.530;2023-07-28T10:02:36;9.20;;;2.80;;
54947;SDS011;41113;41.882;12.530;2023-07-28T10:05:02;12.88;;;2.80;;
54947;SDS011;41113;41.882;12.530;2023-07-28T10:07:29;10.18;;;2.95;;
54947;SDS011;41113;41.882;12.530;2023-07-28T10:09:55;12.35;;;3.05;;
54947;SDS011;41113;41.882;12.530;2023-07-28T10:12:24;10.13;;;2.97;;
54947;SDS011;41113;41.882;12.530;2023-07-28T10:15:12;11.55;;;3.35;;
54947;SDS011;41113;41.882;12.530;2023-07-28T10:17:38;13.18;;;3.40;;
54947;SDS011;41113;41.882;12.530;2023-07-28T10:20:04;10.65;;;3.03;;
54947;SDS011;41113;41.882;12.530;2023-07-28T10:22:43;12.13;;;3.13;;
54947;SDS011;41113;41.882;12.530;2023-07-28T10:25:09;9.98;;;3.05;;
54947;SDS011;41113;41.882;12.530;2023-07-28T10:27:36;9.55;;;2.95;;
54947;SDS011;41113;41.882;12.530;2023-07-28T10:30:04;8.97;;;3.10;;
54947;SDS011;41113;41.882;12.530;2023-07-28T10:32:40;9.15;;;2.42;;
54947;SDS011;41113;41.882;12.530;2023-07-28T10:35:27;10.77;;;3.30;;
54947;SDS011;41113;41.882;12.530;2023-07-28T10:37:54;10.45;;;3.22;;
54947;SDS011;41113;41.882;12.530;2023-07-28T10:43:00;9.40;;;3.53;;
54947;SDS011;41113;41.882;12.530;2023-07-28T10:45:28;10.68;;;2.92;;
54947;SDS011;41113;41.882;12.530;2023-07-28T10:47:55;14.83;;;3.17;;
54947;SDS011;41113;41.882;12.530;2023-07-28T10:50:22;9.25;;;2.90;;
54947;SDS011;41113;41.882;12.530;2023-07-28T10:52:48;13.90;;;3.13;;
54947;SDS011;41113;41.882;12.530;2023-07-28T10:55:15;12.60;;;3.03;;
54947;SDS011;41113;41.882;12.530;2023-07-28T10:57:41;11.18;;;3.28;;
54947;SDS011;41113;41.882;12.530;2023-07-28T11:00:08;13.23;;;3.30;;
54947;SDS011;41113;41.882;12.530;2023-07-28T11:05:05;10.15;;;2.85;;
54947;SDS011;41113;41.882;12.530;2023-07-28T11:07:32;10.45;;;3.03;;
54947;SDS011;41113;41.882;12.530;2023-07-28T11:09:59;9.30;;;3.20;;
54947;SDS011;41113;41.882;12.530;2023-07-28T11:12:26;10.10;;;3.25;;
54947;SDS011;41113;41.882;12.530;2023-07-28T11:14:51;11.05;;;3.15;;
54947;SDS011;41113;41.882;12.530;2023-07-28T11:17:17;9.65;;;3.03;;
54947;SDS011;41113;41.882;12.530;2023-07-28T11:19:43;9.77;;;3.10;;
54947;SDS011;41113;41.882;12.530;2023-07-28T11:22:08;9.57;;;2.90;;
54947;SDS011;41113;41.882;12.530;2023-07-28T11:24:33;10.85;;;2.95;;
54947;SDS011;41113;41.882;12.530;2023-07-28T11:26:59;9.50;;;3.30;;
54947;SDS011;41113;41.882;12.530;2023-07-28T11:29:24;14.38;;;3.58;;
54947;SDS011;41113;41.882;12.530;2023-07-28T11:31:50;9.27;;;3.05;;
54947;SDS011;41113;41.882;12.530;2023-07-28T11:34:15;10.32;;;3.35;;
54947;SDS011;41113;41.882;12.530;2023-07-28T11:36:42;14.05;;;3.88;;
54947;SDS011;41113;41.882;12.530;2023-07-28T11:39:07;12.05;;;3.70;;
54947;SDS011;41113;41.882;12.530;2023-07-28T11:41:35;10.17;;;2.77;;
54947;SDS011;41113;41.882;12.530;2023-07-28T11:44:01;12.57;;;3.22;;
54947;SDS011;41113;41.882;12.530;2023-07-28T11:46:37;10.95;;;3.17;;
54947;SDS011;41113;41.882;12.530;2023-07-28T11:49:08;11.77;;;2.67;;
54947;SDS011;41113;41.882;12.530;2023-07-28T11:51:39;8.25;;;3.50;;
54947;SDS011;41113;41.882;12.530;2023-07-28T11:54:11;12.77;;;3.20;;
54947;SDS011;41113;41.882;12.530;2023-07-28T11:56:41;13.32;;;3.60;;
54947;SDS011;41113;41.882;12.530;2023-07-28T11:59:08;8.13;;;2.25;;
54947;SDS011;41113;41.882;12.530;2023-07-28T12:01:34;12.57;;;3.17;;
54947;SDS011;41113;41.882;12.530;2023-07-28T12:04:18;8.65;;;2.60;;
54947;SDS011;41113;41.882;12.530;2023-07-28T12:07:03;10.38;;;2.88;;
54947;SDS011;41113;41.882;12.530;2023-07-28T12:12:23;10.52;;;2.72;;
54947;SDS011;41113;41.882;12.530;2023-07-28T12:14:51;11.30;;;3.03;;
54947;SDS011;41113;41.882;12.530;2023-07-28T12:17:18;16.92;;;4.00;;
54947;SDS011;41113;41.882;12.530;2023-07-28T12:22:40;7.90;;;2.47;;
54947;SDS011;41113;41.882;12.530;2023-07-28T12:25:06;8.85;;;2.30;;
54947;SDS011;41113;41.882;12.530;2023-07-28T12:27:32;7.63;;;2.47;;
54947;SDS011;41113;41.882;12.530;2023-07-28T12:29:58;10.13;;;3.05;;
54947;SDS011;41113;41.882;12.530;2023-07-28T12:32:24;9.15;;;2.67;;
54947;SDS011;41113;41.882;12.530;2023-07-28T12:34:49;9.23;;;2.40;;
54947;SDS011;41113;41.882;12.530;2023-07-28T12:37:16;8.73;;;2.20;;
54947;SDS011;41113;41.882;12.530;2023-07-28T12:39:42;7.85;;;2.30;;
54947;SDS011;41113;41.882;12.530;2023-07-28T12:42:08;10.32;;;2.60;;
54947;SDS011;41113;41.882;12.530;2023-07-28T12:44:34;8.60;;;2.60;;
54947;SDS011;41113;41.882;12.530;2023-07-28T12:47:00;11.25;;;2.45;;
54947;SDS011;41113;41.882;12.530;2023-07-28T12:49:26;8.63;;;2.13;;
54947;SDS011;41113;41.882;12.530;2023-07-28T12:51:54;8.82;;;2.50;;
54947;SDS011;41113;41.882;12.530;2023-07-28T12:54:25;9.93;;;2.30;;
54947;SDS011;41113;41.882;12.530;2023-07-28T12:56:51;8.90;;;2.20;;
54947;SDS011;41113;41.882;12.530;2023-07-28T12:59:18;9.75;;;2.45;;
54947;SDS011;41113;41.882;12.530;2023-07-28T13:01:43;8.80;;;2.45;;
54947;SDS011;41113;41.882;12.530;2023-07-28T13:04:08;8.60;;;2.70;;
54947;SDS011;41113;41.882;12.530;2023-07-28T13:06:34;9.40;;;2.97;;
54947;SDS011;41113;41.882;12.530;2023-07-28T13:08:59;8.75;;;2.60;;
54947;SDS011;41113;41.882;12.530;2023-07-28T13:11:24;7.97;;;2.50;;
54947;SDS011;41113;41.882;12.530;2023-07-28T13:13:50;9.18;;;2.58;;
54947;SDS011;41113;41.882;12.530;2023-07-28T13:16:15;8.35;;;2.47;;
54947;SDS011;41113;41.882;12.530;2023-07-28T13:18:43;9.48;;;2.53;;
54947;SDS011;41113;41.882;12.530;2023-07-28T13:21:10;7.57;;;2.47;;
54947;SDS011;41113;41.882;12.530;2023-07-28T13:23:36;11.45;;;2.85;;
54947;SDS011;41113;41.882;12.530;2023-07-28T13:26:02;10.43;;;2.53;;
54947;SDS011;41113;41.882;12.530;2023-07-28T13:28:29;11.30;;;3.17;;
54947;SDS011;41113;41.882;12.530;2023-07-28T13:30:55;7.53;;;2.10;;
54947;SDS011;41113;41.882;12.530;2023-07-28T13:33:20;6.75;;;2.22;;
54947;SDS011;41113;41.882;12.530;2023-07-28T13:35:46;8.38;;;2.55;;
54947;SDS011;41113;41.882;12.530;2023-07-28T13:38:11;7.97;;;2.50;;
54947;SDS011;41113;41.882;12.530;2023-07-28T13:40:36;7.72;;;2.30;;
54947;SDS011;41113;41.882;12.530;2023-07-28T13:43:02;8.73;;;2.13;;
54947;SDS011;41113;41.882;12.530;2023-07-28T13:45:27;7.65;;;2.60;;
54947;SDS011;41113;41.882;12.530;2023-07-28T13:47:52;10.35;;;2.40;;
54947;SDS011;41113;41.882;12.530;2023-07-28T13:50:18;8.32;;;2.28;;
54947;SDS011;41113;41.882;12.530;2023-07-28T13:52:43;11.63;;;2.58;;
54947;SDS011;41113;41.882;12.530;2023-07-28T13:55:08;9.13;;;2.13;;
54947;SDS011;41113;41.882;12.530;2023-07-28T13:57:34;7.82;;;2.20;;
54947;SDS011;41113;41.882;12.530;2023-07-28T13:59:59;10.02;;;2.35;;
54947;SDS011;41113;41.882;12.530;2023-07-28T14:02:25;9.80;;;1.77;;
54947;SDS011;41113;41.882;12.530;2023-07-28T14:04:50;8.75;;;2.30;;
54947;SDS011;41113;41.882;12.530;2023-07-28T14:07:16;9.30;;;2.22;;
54947;SDS011;41113;41.882;12.530;2023-07-28T14:09:41;9.32;;;2.17;;
54947;SDS011;41113;41.882;12.530;2023-07-28T14:12:06;7.65;;;2.28;;
54947;SDS011;41113;41.882;12.530;2023-07-28T14:14:32;7.75;;;2.30;;
54947;SDS011;41113;41.882;12.530;2023-07-28T14:16:58;8.95;;;2.63;;
54947;SDS011;41113;41.882;12.530;2023-07-28T14:19:23;8.55;;;2.45;;
54947;SDS011;41113;41.882;12.530;2023-07-28T14:21:48;7.65;;;1.90;;
54947;SDS011;41113;41.882;12.530;2023-07-28T14:24:14;7.70;;;2.30;;
54947;SDS011;41113;41.882;12.530;2023-07-28T14:26:39;8.38;;;2.30;;
54947;SDS011;41113;41.882;12.530;2023-07-28T14:29:05;10.23;;;2.20;;
54947;SDS011;41113;41.882;12.530;2023-07-28T14:31:30;9.20;;;2.47;;
54947;SDS011;41113;41.882;12.530;2023-07-28T14:33:56;8.60;;;2.45;;
54947;SDS011;41113;41.882;12.530;2023-07-28T14:36:21;8.02;;;2.10;;
54947;SDS011;41113;41.882;12.530;2023-07-28T14:38:47;7.82;;;2.20;;
54947;SDS011;41113;41.882;12.530;2023-07-28T14:41:12;8.00;;;2.10;;